Time;durP1;ratioP1;P1;durP2;ratioP2;P2;SDS_P1;SDS_P2;PMS_P1;PMS_P2;Temp;Humidity;BMP_temperature;BMP_pressure;BME280_temperature;BME280_humidity;BME280_pressure;Samples;Min_cycle;Max_cycle;Signal;HPM_P1;HPM_P2
2023/08/25 00:02:15;;;;;;;5.13;2.47;;;;;;;23.82;67.06;151986.56;4986559;28;20253;-58
2023/08/25 00:04:45;;;;;;;4.43;2.20;;;;;;;23.89;65.07;152002.84;4987667;28;20228;-58
2023/08/25 00:07:11;;;;;;;5.13;2.70;;;;;;;23.74;65.95;151966.47;4988171;28;20237;-57
2023/08/25 00:09:39;;;;;;;3.43;2.30;;;;;;;23.54;68.53;151918.78;4984076;28;20233;-58
2023/08/25 00:12:06;;;;;;;5.57;2.57;;;;;;;23.39;68.01;151881.13;4988452;28;20246;-58
2023/08/25 00:14:33;;;;;;;7.60;2.90;;;;;;;23.24;70.09;151844.75;4984759;28;20251;-58
2023/08/25 00:16:59;;;;;;;4.00;2.47;;;;;;;23.14;71.48;151820.81;4990036;28;20250;-58
2023/08/25 00:19:26;;;;;;;5.47;2.50;;;;;;;23.08;72.47;151805.78;4986134;28;20243;-56
2023/08/25 00:21:53;;;;;;;4.87;2.40;;;;;;;22.98;72.86;151783.19;4989060;28;20277;-57
2023/08/25 00:24:20;;;;;;;4.70;2.40;;;;;;;22.82;74.88;151743.03;4989397;28;20249;-57
2023/08/25 00:26:48;;;;;;;5.53;2.80;;;;;;;22.63;77.39;151697.91;5002299;28;20727;-57
2023/08/25 00:29:14;;;;;;;4.37;2.70;;;;;;;22.41;79.06;151645.19;5006739;28;20242;-58
2023/08/25 00:31:41;;;;;;;5.27;2.70;;;;;;;22.21;81.83;151595.00;4991756;28;20233;-58
2023/08/25 00:34:07;;;;;;;3.53;2.57;;;;;;;22.04;84.22;151553.63;5009668;28;20218;-58
2023/08/25 00:36:34;;;;;;;9.43;2.90;;;;;;;21.77;87.15;151488.44;4992793;28;20225;-58
2023/08/25 00:39:01;;;;;;;4.17;2.40;;;;;;;21.65;90.38;151460.84;4998930;28;20700;-58
2023/08/25 00:41:30;;;;;;;5.33;3.20;;;;;;;21.34;92.77;151385.56;4987989;28;20236;-58
2023/08/25 00:43:58;;;;;;;5.40;2.60;;;;;;;21.22;93.99;151356.75;4996844;28;20244;-58
2023/08/25 00:46:31;;;;;;;7.87;2.80;;;;;;;21.11;96.02;151327.94;4990173;28;20236;-57
2023/08/25 00:48:59;;;;;;;6.47;3.00;;;;;;;20.85;98.67;151265.28;4997150;28;20235;-57
2023/08/25 00:51:31;;;;;;;7.87;3.20;;;;;;;20.79;98.51;151251.47;4977941;28;20259;-57
2023/08/25 00:53:58;;;;;;;5.23;2.90;;;;;;;20.64;99.94;151216.38;4996790;28;20239;-57
2023/08/25 00:56:31;;;;;;;6.60;3.17;;;;;;;20.63;100.00;151212.59;4977486;28;20233;-58
2023/08/25 00:58:59;;;;;;;7.00;3.13;;;;;;;20.45;100.00;151168.75;4990681;28;20245;-58
2023/08/25 01:01:30;;;;;;;4.97;3.10;;;;;;;20.34;100.00;151143.69;4991290;28;20237;-58
2023/08/25 01:03:57;;;;;;;8.37;3.20;;;;;;;20.25;100.00;151119.88;4991806;28;20226;-57
2023/08/25 01:06:30;;;;;;;4.90;3.50;;;;;;;20.12;100.00;151089.84;5009032;28;20578;-57
2023/08/25 01:08:58;;;;;;;5.13;3.10;;;;;;;20.01;100.00;151063.50;4992625;28;20794;-57
2023/08/25 01:11:37;;;;;;;9.60;3.20;;;;;;;19.98;100.00;151054.78;4996796;28;20273;-57
2023/08/25 01:14:14;;;;;;;11.53;3.83;;;;;;;19.88;100.00;151030.91;4996839;28;20240;-57
2023/08/25 01:16:49;;;;;;;6.13;3.30;;;;;;;19.81;100.00;151014.63;4986263;28;20235;-57
2023/08/25 01:19:40;;;;;;;4.00;3.20;;;;;;;19.74;100.00;150997.09;5011381;28;20230;-57
2023/08/25 01:22:13;;;;;;;10.37;3.20;;;;;;;19.71;100.00;150989.59;4991925;28;20318;-57
2023/08/25 01:24:43;;;;;;;5.23;3.30;;;;;;;19.59;100.00;150960.81;4987804;28;20238;-58
2023/08/25 01:27:11;;;;;;;6.67;3.40;;;;;;;19.52;100.00;150944.50;5012738;28;20759;-57
2023/08/25 01:29:42;;;;;;;6.77;3.10;;;;;;;19.46;100.00;150929.47;4987892;28;20572;-57
2023/08/25 01:32:09;;;;;;;9.43;3.30;;;;;;;19.41;100.00;150918.22;5001358;28;20317;-57
2023/08/25 01:34:37;;;;;;;5.73;3.60;;;;;;;19.38;100.00;150909.44;5008917;28;20235;-58
2023/08/25 01:37:11;;;;;;;5.87;3.50;;;;;;;19.24;100.00;150876.88;5008416;28;20242;-57
2023/08/25 01:39:41;;;;;;;5.17;3.40;;;;;;;19.22;100.00;150870.63;5006378;28;20297;-57
2023/08/25 01:42:09;;;;;;;4.67;3.33;;;;;;;19.17;100.00;150860.63;4990419;28;20229;-57
2023/08/25 01:44:40;;;;;;;7.30;3.10;;;;;;;19.14;100.00;150851.81;4992014;28;20689;-57
2023/08/25 01:47:08;;;;;;;5.47;3.47;;;;;;;19.13;100.00;150849.31;4990597;28;20566;-56
2023/08/25 01:49:38;;;;;;;7.27;3.80;;;;;;;19.08;100.00;150836.84;4973858;28;20234;-55
2023/08/25 01:52:05;;;;;;;6.13;3.47;;;;;;;19.07;100.00;150835.56;4995085;28;20583;-57
2023/08/25 01:54:32;;;;;;;6.13;3.07;;;;;;;18.98;100.00;150813.03;4992220;28;20919;-57
2023/08/25 01:56:59;;;;;;;5.07;3.40;;;;;;;18.94;100.00;150802.97;4993508;28;20616;-57
2023/08/25 01:59:25;;;;;;;7.00;3.50;;;;;;;19.01;100.00;150820.53;4991896;28;20225;-57
2023/08/25 02:01:53;;;;;;;5.87;3.30;;;;;;;18.93;100.00;150801.75;4993484;28;20740;-57
2023/08/25 02:04:20;;;;;;;6.50;3.43;;;;;;;18.92;100.00;150797.97;4975051;28;20934;-57
2023/08/25 02:06:47;;;;;;;8.37;3.83;;;;;;;18.84;100.00;150779.22;4994638;28;20238;-57
2023/08/25 02:09:14;;;;;;;9.27;3.50;;;;;;;18.82;100.00;150774.19;4991283;28;20227;-57
2023/08/25 02:11:40;;;;;;;7.17;3.47;;;;;;;18.78;100.00;150765.41;4977205;28;20231;-57
2023/08/25 02:14:18;;;;;;;11.23;3.97;;;;;;;18.72;100.00;150751.66;4993096;28;20776;-57
2023/08/25 02:16:44;;;;;;;5.83;3.47;;;;;;;18.72;100.00;150750.38;4992577;28;20226;-57
2023/08/25 02:19:12;;;;;;;4.87;3.57;;;;;;;18.74;100.00;150755.41;4993493;28;20229;-57
2023/08/25 02:21:39;;;;;;;7.00;3.07;;;;;;;18.73;100.00;150752.91;4989017;28;20261;-57
2023/08/25 02:24:06;;;;;;;7.80;3.30;;;;;;;18.69;100.00;150744.16;4992476;28;20230;-57
2023/08/25 02:26:33;;;;;;;5.80;3.67;;;;;;;18.64;100.00;150731.63;4996586;28;20349;-55
2023/08/25 02:29:06;;;;;;;5.67;3.70;;;;;;;18.64;100.00;150730.38;4997649;28;20214;-55
2023/08/25 02:31:33;;;;;;;7.83;3.37;;;;;;;18.63;100.00;150727.84;4993058;28;20688;-56
2023/08/25 02:34:00;;;;;;;6.23;3.33;;;;;;;18.57;100.00;150714.13;4975114;28;20233;-56
2023/08/25 02:36:31;;;;;;;8.53;3.43;;;;;;;18.59;100.00;150720.34;4992888;28;20266;-56
2023/08/25 02:38:58;;;;;;;7.00;3.73;;;;;;;18.60;100.00;150721.63;4992994;28;20237;-57
2023/08/25 02:41:30;;;;;;;4.70;3.50;;;;;;;18.64;100.00;150731.63;4990437;28;20749;-57
2023/08/25 02:43:56;;;;;;;9.27;3.20;;;;;;;18.64;100.00;150730.38;4997788;28;20215;-56
2023/08/25 02:46:23;;;;;;;5.57;3.40;;;;;;;18.70;100.00;150746.66;4989351;28;20233;-57
2023/08/25 02:48:50;;;;;;;4.57;3.13;;;;;;;18.77;100.00;150761.69;4994636;28;20230;-56
2023/08/25 02:51:16;;;;;;;7.10;3.27;;;;;;;18.77;100.00;150762.91;4990804;28;20311;-56
2023/08/25 02:53:44;;;;;;;5.70;3.07;;;;;;;18.81;100.00;150771.69;4994517;28;20712;-57
2023/08/25 02:56:11;;;;;;;6.27;3.13;;;;;;;18.76;100.00;150760.41;4993690;28;20228;-56
2023/08/25 02:58:38;;;;;;;8.60;3.10;;;;;;;18.74;100.00;150756.66;4974843;28;20229;-57
2023/08/25 03:03:56;;;;;;;5.53;3.03;;;;;;;18.73;100.00;150754.16;5719878;23;20632;-58
2023/08/25 03:06:23;;;;;;;7.73;3.13;;;;;;;18.67;100.00;150737.88;5009012;28;20234;-58
2023/08/25 03:08:52;;;;;;;11.03;3.10;;;;;;;18.60;100.00;150721.63;5000776;28;20230;-59
2023/08/25 03:11:19;;;;;;;5.97;2.80;;;;;;;18.61;100.00;150722.84;4999931;28;20723;-59
2023/08/25 03:13:48;;;;;;;7.87;3.50;;;;;;;18.59;100.00;150719.13;4997200;28;20229;-59
2023/08/25 03:16:15;;;;;;;5.07;3.27;;;;;;;18.55;100.00;150710.34;4990637;28;20331;-59
2023/08/25 03:18:42;;;;;;;5.27;3.00;;;;;;;18.50;100.00;150697.88;5002398;28;20646;-58
2023/08/25 03:21:09;;;;;;;5.67;3.13;;;;;;;18.44;100.00;150682.84;4995618;28;20227;-58
2023/08/25 03:23:35;;;;;;;5.47;3.00;;;;;;;18.48;100.00;150691.59;4993272;28;20303;-59
2023/08/25 03:26:04;;;;;;;9.13;3.40;;;;;;;18.50;100.00;150696.59;5002531;28;20222;-58
2023/08/25 03:28:31;;;;;;;4.73;2.90;;;;;;;18.46;100.00;150686.56;5000220;28;20238;-60
2023/08/25 03:30:57;;;;;;;5.73;3.20;;;;;;;18.49;100.00;150695.38;5249777;22;21296;-57
2023/08/25 03:33:25;;;;;;;5.97;3.07;;;;;;;18.45;100.00;150685.34;5001277;28;20671;-60
2023/08/25 03:35:52;;;;;;;5.43;3.13;;;;;;;18.51;100.00;150699.09;5016312;28;20236;-60
2023/08/25 03:38:19;;;;;;;5.50;3.30;;;;;;;18.47;100.00;150689.06;4996321;28;20632;-59
2023/08/25 03:40:46;;;;;;;6.63;2.90;;;;;;;18.57;100.00;150715.34;5000995;28;20224;-60
2023/08/25 03:43:14;;;;;;;11.20;3.43;;;;;;;18.54;100.00;150707.88;5015496;28;20220;-59
2023/08/25 03:45:40;;;;;;;6.30;3.13;;;;;;;18.62;100.00;150726.63;4998870;28;20675;-60
2023/08/25 03:48:07;;;;;;;9.67;3.20;;;;;;;18.72;100.00;150751.66;5004982;28;20225;-60
2023/08/25 03:50:34;;;;;;;4.03;2.87;;;;;;;18.73;100.00;150754.16;5003181;28;20237;-58
2023/08/25 03:53:00;;;;;;;5.67;3.10;;;;;;;18.74;100.00;150755.41;5003716;28;20226;-60
2023/08/25 03:55:27;;;;;;;6.57;3.33;;;;;;;18.72;100.00;150751.66;5010671;28;20216;-58
2023/08/25 03:57:54;;;;;;;5.07;3.27;;;;;;;18.76;100.00;150759.19;5013104;28;20686;-59
2023/08/25 04:00:22;;;;;;;5.80;3.57;;;;;;;18.74;100.00;150755.41;4993513;28;20221;-59
2023/08/25 04:02:48;;;;;;;5.33;3.03;;;;;;;18.79;100.00;150766.69;5017036;28;20280;-60
2023/08/25 04:05:15;;;;;;;8.17;3.07;;;;;;;18.77;100.00;150762.91;5011409;28;20308;-59
2023/08/25 04:07:42;;;;;;;7.73;3.10;;;;;;;18.74;100.00;150756.66;5019178;28;20239;-59
2023/08/25 04:10:08;;;;;;;4.83;3.27;;;;;;;18.68;100.00;150741.66;4994122;28;20217;-59
2023/08/25 04:12:35;;;;;;;4.77;3.30;;;;;;;18.59;100.00;150720.34;4992842;28;20241;-60
2023/08/25 04:15:02;;;;;;;4.13;3.20;;;;;;;18.52;100.00;150702.88;5016683;28;20248;-60
2023/08/25 04:17:34;;;;;;;5.40;2.90;;;;;;;18.51;100.00;150700.38;5001303;28;20313;-60
2023/08/25 04:20:01;;;;;;;5.13;3.30;;;;;;;18.46;100.00;150686.56;5003389;28;20249;-59
2023/08/25 04:22:27;;;;;;;9.57;3.60;;;;;;;18.47;100.00;150689.06;4996841;28;20695;-59
2023/08/25 04:24:54;;;;;;;8.90;3.37;;;;;;;18.50;100.00;150696.59;4996874;28;20224;-59
2023/08/25 04:27:21;;;;;;;9.93;3.90;;;;;;;18.53;100.00;150704.09;4996332;28;20283;-60
2023/08/25 04:29:48;;;;;;;3.57;3.17;;;;;;;18.44;100.00;150682.84;5002512;28;20233;-60
2023/08/25 04:32:15;;;;;;;4.73;3.23;;;;;;;18.41;100.00;150676.56;4994406;28;20217;-60
2023/08/25 04:34:44;;;;;;;9.00;3.43;;;;;;;18.39;100.00;150670.31;4999631;28;20625;-59
2023/08/25 04:37:10;;;;;;;5.40;3.50;;;;;;;18.40;100.00;150672.81;5005385;28;20234;-60
2023/08/25 04:39:37;;;;;;;10.50;4.00;;;;;;;18.43;100.00;150680.34;5016848;28;20226;-60
2023/08/25 04:42:05;;;;;;;7.40;3.87;;;;;;;18.46;100.00;150687.84;5005191;28;20253;-60
2023/08/25 04:44:31;;;;;;;8.73;3.70;;;;;;;18.52;100.00;150701.59;4994523;28;20279;-60
2023/08/25 04:46:58;;;;;;;8.27;4.17;;;;;;;18.59;100.00;150720.34;4997957;28;20740;-59
2023/08/25 04:49:25;;;;;;;4.30;3.30;;;;;;;18.69;100.00;150742.88;4996779;28;20265;-60
2023/08/25 04:51:53;;;;;;;4.03;3.40;;;;;;;18.79;100.00;150766.69;5003444;28;20233;-59
2023/08/25 04:54:21;;;;;;;7.57;3.50;;;;;;;18.94;100.00;150802.97;5010175;28;20251;-59
2023/08/25 04:56:49;;;;;;;5.63;3.80;;;;;;;19.03;100.00;150825.56;4998918;28;20241;-60
2023/08/25 04:59:17;;;;;;;7.80;3.70;;;;;;;19.09;100.00;150839.31;4962152;28;20222;-60
2023/08/25 05:01:44;;;;;;;5.80;3.30;;;;;;;19.21;100.00;150869.34;5011507;28;20266;-60
2023/08/25 05:04:12;;;;;;;7.10;3.10;;;;;;;19.36;100.00;150904.41;4991452;28;20226;-60
2023/08/25 05:06:39;;;;;;;6.10;3.53;;;;;;;19.47;100.00;150933.25;4995364;28;20234;-59
2023/08/25 05:09:09;;;;;;;8.07;3.57;;;;;;;19.59;100.00;150962.03;5004253;28;20694;-60
2023/08/25 05:11:37;;;;;;;5.67;3.23;;;;;;;19.70;100.00;150987.06;4995946;28;20238;-60
2023/08/25 05:14:04;;;;;;;7.27;3.33;;;;;;;19.71;100.00;150989.59;5015640;28;20779;-60
2023/08/25 05:16:31;;;;;;;10.20;3.60;;;;;;;19.73;100.00;150995.81;5017041;28;20242;-59
2023/08/25 05:19:13;;;;;;;4.67;3.33;;;;;;;19.83;100.00;151019.66;5014739;28;20283;-60
2023/08/25 05:21:40;;;;;;;3.73;3.10;;;;;;;19.84;100.00;151020.88;5002098;28;20616;-59
2023/08/25 05:24:18;;;;;;;6.50;4.07;;;;;;;19.79;100.00;151008.34;5008548;28;20226;-59
2023/08/25 05:26:47;;;;;;;6.17;4.07;;;;;;;19.76;100.00;151002.09;4996516;28;20234;-58
2023/08/25 05:29:14;;;;;;;8.40;4.33;;;;;;;19.68;100.00;150982.06;5014423;28;20216;-60
2023/08/25 05:31:41;;;;;;;10.10;5.00;;;;;;;19.65;100.00;150975.78;5018080;28;20316;-60
2023/08/25 05:34:46;;;;;;;10.63;4.90;;;;;;;19.58;100.00;150959.53;4963242;28;20361;-59
2023/08/25 05:37:13;;;;;;;9.37;4.33;;;;;;;19.58;100.00;150959.53;4951667;28;20235;-60
2023/08/25 05:39:41;;;;;;;11.57;4.93;;;;;;;19.45;100.00;150926.97;4971523;28;20645;-59
2023/08/25 05:42:09;;;;;;;10.60;5.30;;;;;;;19.45;100.00;150926.97;4999293;28;20632;-59
2023/08/25 05:44:35;;;;;;;14.17;5.43;;;;;;;19.37;100.00;150906.94;5004215;28;20312;-62
2023/08/25 05:47:03;;;;;;;10.00;4.90;;;;;;;19.46;100.00;150929.47;5000468;28;20232;-58
2023/08/25 05:49:30;;;;;;;12.77;5.50;;;;;;;19.46;100.00;150929.47;4997881;28;20268;-58
2023/08/25 05:51:56;;;;;;;12.33;5.33;;;;;;;19.43;100.00;150923.22;5000027;28;20257;-60
2023/08/25 05:54:23;;;;;;;13.20;5.40;;;;;;;19.37;100.00;150906.94;4995707;28;20233;-60
2023/08/25 05:56:51;;;;;;;11.40;5.67;;;;;;;19.33;100.00;150899.41;5006695;28;20296;-60
2023/08/25 05:59:18;;;;;;;16.93;5.57;;;;;;;19.29;100.00;150889.38;5014789;28;20226;-60
2023/08/25 06:01:44;;;;;;;9.27;5.00;;;;;;;19.22;100.00;150870.63;5019106;28;20268;-59
2023/08/25 06:04:11;;;;;;;10.87;4.80;;;;;;;19.20;100.00;150865.63;5019535;28;20225;-60
2023/08/25 06:06:38;;;;;;;7.27;4.33;;;;;;;19.14;100.00;150851.81;5004135;28;20234;-60
2023/08/25 06:09:05;;;;;;;7.07;4.23;;;;;;;19.09;100.00;150839.31;5015939;28;20685;-60
2023/08/25 06:11:31;;;;;;;5.43;3.90;;;;;;;19.11;100.00;150844.31;5016104;28;20241;-59
2023/08/25 06:14:00;;;;;;;7.90;3.60;;;;;;;19.04;100.00;150828.06;5017162;28;20240;-60
2023/08/25 06:16:30;;;;;;;7.33;2.97;;;;;;;19.01;100.00;150821.81;5015785;28;20307;-59
2023/08/25 06:18:56;;;;;;;7.90;3.13;;;;;;;19.09;100.00;150840.59;5016128;28;20240;-59
2023/08/25 06:21:23;;;;;;;4.07;2.63;;;;;;;19.08;100.00;150838.06;5016505;28;20222;-60
2023/08/25 06:23:50;;;;;;;4.63;2.30;;;;;;;19.13;100.00;150849.31;5019634;28;20718;-59
2023/08/25 06:26:17;;;;;;;5.03;1.70;;;;;;;19.16;100.00;150856.84;5015822;28;20243;-59
2023/08/25 06:28:43;;;;;;;3.03;1.80;;;;;;;19.18;100.00;150861.84;5018884;28;20242;-60
2023/08/25 06:31:12;;;;;;;2.67;1.93;;;;;;;19.21;100.00;150869.34;5015100;28;20233;-60
2023/08/25 06:33:39;;;;;;;3.93;1.90;;;;;;;19.23;100.00;150873.13;5013463;28;20295;-60
2023/08/25 06:36:06;;;;;;;1.70;1.30;;;;;;;19.22;100.00;150870.63;5007409;28;20230;-60
2023/08/25 06:38:33;;;;;;;3.63;1.40;;;;;;;19.24;100.00;150875.63;5017220;28;20243;-60
2023/08/25 06:40:59;;;;;;;3.73;1.83;;;;;;;19.24;100.00;150876.88;5016591;28;20257;-60
2023/08/25 06:43:26;;;;;;;7.03;2.30;;;;;;;19.23;100.00;150873.13;4993809;28;20220;-58
2023/08/25 06:45:53;;;;;;;3.37;2.10;;;;;;;19.24;100.00;150875.63;5016731;28;20233;-60
2023/08/25 06:48:21;;;;;;;5.23;2.13;;;;;;;19.22;100.00;150870.63;5015098;28;20328;-59
2023/08/25 06:50:47;;;;;;;2.53;1.67;;;;;;;19.18;100.00;150863.13;5014797;28;20231;-60
2023/08/25 06:53:14;;;;;;;3.37;1.30;;;;;;;19.16;100.00;150856.84;5015851;28;20240;-60
2023/08/25 06:55:40;;;;;;;3.33;1.30;;;;;;;19.15;100.00;150855.59;5015055;28;20229;-59
2023/08/25 06:58:07;;;;;;;6.93;1.50;;;;;;;19.24;100.00;150876.88;5022493;28;20667;-60
2023/08/25 07:00:34;;;;;;;3.90;1.30;;;;;;;19.28;100.00;150885.66;5013994;28;20241;-60
2023/08/25 07:03:01;;;;;;;2.70;1.53;;;;;;;19.29;100.00;150889.38;5016018;28;20730;-60
2023/08/25 07:05:29;;;;;;;6.27;2.13;;;;;;;19.32;100.00;150896.91;5014268;28;20220;-60
2023/08/25 07:07:56;;;;;;;4.90;1.90;;;;;;;19.35;100.00;150903.19;5018684;28;20794;-59
2023/08/25 07:10:23;;;;;;;2.23;1.70;;;;;;;19.37;100.00;150908.19;5015553;28;20224;-60
2023/08/25 07:12:49;;;;;;;4.17;1.90;;;;;;;19.37;100.00;150906.94;5016761;28;20230;-60
2023/08/25 07:15:16;;;;;;;6.53;2.37;;;;;;;19.44;100.00;150925.72;5001306;28;20212;-60
2023/08/25 07:17:43;;;;;;;4.03;2.33;;;;;;;19.46;100.00;150930.75;5016329;28;20569;-60
2023/08/25 07:20:11;;;;;;;4.43;2.30;;;;;;;19.52;100.00;150944.50;5017213;28;20216;-59
2023/08/25 07:22:39;;;;;;;4.80;2.50;;;;;;;19.51;100.00;150940.75;5013256;28;20315;-60
2023/08/25 07:25:06;;;;;;;5.93;2.40;;;;;;;19.47;100.00;150933.25;5016089;28;20225;-59
2023/08/25 07:27:33;;;;;;;4.90;2.67;;;;;;;19.44;100.00;150925.72;5012703;28;20587;-58
2023/08/25 07:30:00;;;;;;;4.03;2.40;;;;;;;19.46;100.00;150930.75;5016113;28;20220;-60
2023/08/25 07:32:27;;;;;;;7.80;3.00;;;;;;;19.48;100.00;150934.47;5014390;28;20250;-59
2023/08/25 07:34:53;;;;;;;7.43;2.57;;;;;;;19.66;100.00;150977.06;5018680;28;20326;-59
2023/08/25 07:37:20;;;;;;;3.93;2.70;;;;;;;19.66;100.00;150977.06;5013740;28;20727;-59
2023/08/25 07:39:52;;;;;;;5.53;2.70;;;;;;;19.73;100.00;150995.81;5015848;28;20232;-60
2023/08/25 07:42:21;;;;;;;5.90;2.97;;;;;;;19.73;100.00;150995.81;5001149;28;20224;-60
2023/08/25 07:44:48;;;;;;;4.30;3.00;;;;;;;19.68;100.00;150982.06;5016109;28;20695;-60
2023/08/25 07:47:15;;;;;;;6.80;2.90;;;;;;;19.75;100.00;151000.84;5010402;28;20216;-60
2023/08/25 07:49:41;;;;;;;5.13;3.57;;;;;;;19.71;100.00;150989.59;5017524;28;20755;-60
2023/08/25 07:52:08;;;;;;;10.57;2.90;;;;;;;19.62;100.00;150969.53;5019022;28;20227;-60
2023/08/25 07:54:35;;;;;;;5.43;2.40;;;;;;;19.78;100.00;151007.13;5014580;28;20237;-59
2023/08/25 07:57:03;;;;;;;3.63;2.73;;;;;;;19.81;100.00;151013.38;5017163;28;20213;-60
2023/08/25 07:59:29;;;;;;;3.53;2.80;;;;;;;19.81;100.00;151014.63;5014939;28;20216;-60
2023/08/25 08:01:56;;;;;;;7.40;2.60;;;;;;;19.81;100.00;151014.63;5015593;28;20239;-60
2023/08/25 08:04:22;;;;;;;5.87;2.63;;;;;;;19.76;100.00;151002.09;5011618;28;20235;-59
2023/08/25 08:06:49;;;;;;;6.27;3.33;;;;;;;19.79;100.00;151009.63;5018312;28;20234;-60
2023/08/25 08:09:17;;;;;;;5.47;2.20;;;;;;;19.82;100.00;151017.13;5018382;28;20228;-59
2023/08/25 08:11:44;;;;;;;3.47;2.00;;;;;;;19.85;100.00;151024.66;5014238;28;20249;-59
2023/08/25 08:14:12;;;;;;;4.13;2.03;;;;;;;19.99;100.00;151057.28;5017429;28;20217;-59
2023/08/25 08:16:38;;;;;;;2.80;2.13;;;;;;;20.14;100.00;151094.81;5011872;28;20226;-59
2023/08/25 08:19:06;;;;;;;4.30;2.50;;;;;;;20.30;100.00;151132.41;5016156;28;20711;-59
2023/08/25 08:21:32;;;;;;;3.67;2.33;;;;;;;20.42;100.00;151161.25;5013142;28;20270;-59
2023/08/25 08:24:00;;;;;;;3.13;2.50;;;;;;;20.50;100.00;151181.28;5014727;28;20252;-59
2023/08/25 08:26:30;;;;;;;4.53;2.73;;;;;;;20.42;100.00;151162.47;5011231;28;20231;-59
2023/08/25 08:28:57;;;;;;;5.43;2.50;;;;;;;20.40;100.00;151157.47;5016646;28;20669;-59
2023/08/25 08:31:29;;;;;;;3.43;2.80;;;;;;;20.60;100.00;151206.34;5012821;28;20239;-60
2023/08/25 08:33:56;;;;;;;5.43;2.70;;;;;;;20.75;100.00;151241.41;5016001;28;20236;-59
2023/08/25 08:36:23;;;;;;;4.57;2.77;;;;;;;20.87;100.00;151270.28;5014321;28;20221;-59
2023/08/25 08:38:50;;;;;;;7.53;3.57;;;;;;;20.96;100.00;151291.56;5016152;28;20230;-59
2023/08/25 08:41:18;;;;;;;5.67;2.67;;;;;;;21.23;100.00;151358.00;5013428;28;20231;-59
2023/08/25 08:43:46;;;;;;;6.60;3.27;;;;;;;21.10;100.00;151326.69;5017220;28;20226;-59
2023/08/25 08:46:15;;;;;;;2.90;2.57;;;;;;;21.35;100.00;151388.06;5014288;28;20223;-59
2023/08/25 08:48:44;;;;;;;4.57;2.70;;;;;;;21.21;100.00;151354.25;5014471;28;20231;-60
2023/08/25 08:51:13;;;;;;;4.50;3.43;;;;;;;21.72;92.53;151475.88;5015846;28;20245;-60
2023/08/25 08:53:41;;;;;;;4.23;3.17;;;;;;;21.86;94.99;151511.00;5009802;28;20241;-60
2023/08/25 08:56:08;;;;;;;6.77;3.00;;;;;;;21.88;93.59;151516.00;5020838;28;20750;-60
2023/08/25 08:58:35;;;;;;;5.97;3.00;;;;;;;21.90;92.58;151519.75;5018893;28;20301;-59
2023/08/25 09:01:03;;;;;;;4.17;3.10;;;;;;;21.97;94.10;151538.59;5019097;28;20307;-59
2023/08/25 09:03:33;;;;;;;4.27;2.90;;;;;;;21.98;98.01;151539.81;5016675;28;20375;-59
2023/08/25 09:06:03;;;;;;;3.27;2.90;;;;;;;21.54;99.38;151433.22;5016435;28;20318;-59
2023/08/25 09:08:31;;;;;;;6.23;3.03;;;;;;;21.42;100.00;151403.13;5016467;28;20628;-59
2023/08/25 09:11:00;;;;;;;4.93;3.20;;;;;;;21.38;100.00;151395.59;5016768;28;20249;-59
2023/08/25 09:13:26;;;;;;;3.90;3.10;;;;;;;21.52;96.27;151428.19;5016343;28;20228;-59
2023/08/25 09:15:55;;;;;;;6.03;2.83;;;;;;;21.87;89.27;151513.50;5018359;28;20230;-59
2023/08/25 09:18:21;;;;;;;4.57;2.80;;;;;;;22.13;88.28;151576.22;5016205;28;20226;-59
2023/08/25 09:20:48;;;;;;;3.97;2.33;;;;;;;22.44;87.22;151650.19;4997257;28;20231;-59
2023/08/25 09:23:16;;;;;;;3.40;2.43;;;;;;;22.40;86.80;151641.38;5011422;28;20621;-60
2023/08/25 09:25:43;;;;;;;4.33;2.50;;;;;;;22.39;87.07;151638.88;5016177;28;20249;-58
2023/08/25 09:28:10;;;;;;;4.30;2.23;;;;;;;22.72;82.31;151719.22;5021540;28;20300;-59
2023/08/25 09:30:38;;;;;;;5.23;2.50;;;;;;;22.83;81.11;151746.81;5014970;28;20233;-59
2023/08/25 09:33:07;;;;;;;2.87;1.80;;;;;;;23.05;81.54;151798.25;5016068;28;20238;-59
2023/08/25 09:35:34;;;;;;;4.20;2.00;;;;;;;23.11;78.81;151814.56;5014231;28;20248;-59
2023/08/25 09:38:01;;;;;;;4.80;2.10;;;;;;;23.05;76.53;151799.53;5018316;28;20229;-59
2023/08/25 09:40:30;;;;;;;3.17;1.60;;;;;;;23.14;74.43;151822.09;5014565;28;20691;-58
2023/08/25 09:42:59;;;;;;;2.63;1.93;;;;;;;23.19;74.79;151833.38;5019899;28;20725;-59
2023/08/25 09:45:27;;;;;;;3.57;2.10;;;;;;;23.15;77.56;151823.34;5017639;28;20235;-59
2023/08/25 09:47:54;;;;;;;3.20;1.70;;;;;;;23.30;72.67;151859.81;5016594;28;20327;-58
2023/08/25 09:50:20;;;;;;;4.97;1.80;;;;;;;23.46;73.06;151898.69;5017544;28;20238;-59
2023/08/25 09:52:48;;;;;;;2.20;1.77;;;;;;;23.41;74.28;151887.38;5018939;28;20233;-59
2023/08/25 09:55:15;;;;;;;4.30;2.00;;;;;;;23.69;73.81;151953.91;5018085;28;20228;-58
2023/08/25 09:57:45;;;;;;;2.40;1.83;;;;;;;23.85;73.63;151994.03;5018465;28;20234;-60
2023/08/25 10:00:13;;;;;;;6.33;2.10;;;;;;;23.47;74.85;151899.91;5017384;28;20233;-58
2023/08/25 10:02:40;;;;;;;5.40;2.17;;;;;;;23.48;76.93;151902.44;5013807;28;20297;-59
2023/08/25 10:05:09;;;;;;;3.50;2.00;;;;;;;23.84;75.05;151990.28;5017967;28;20249;-59
2023/08/25 10:07:36;;;;;;;4.37;2.13;;;;;;;23.97;72.11;152022.94;5015306;28;20245;-59
2023/08/25 10:10:03;;;;;;;4.77;2.23;;;;;;;24.19;70.33;152075.72;5015955;28;20233;-59
2023/08/25 10:12:32;;;;;;;3.93;2.00;;;;;;;24.68;68.54;152194.97;5014190;28;20237;-59
2023/08/25 10:15:01;;;;;;;3.47;2.07;;;;;;;24.77;68.48;152216.34;5015393;28;20240;-60
2023/08/25 10:17:30;;;;;;;3.13;2.27;;;;;;;24.84;68.71;152232.72;5012907;28;20229;-59
2023/08/25 10:20:03;;;;;;;3.13;2.27;;;;;;;24.75;67.16;152212.59;5019942;28;20915;-60
2023/08/25 10:22:31;;;;;;;2.57;2.00;;;;;;;24.98;67.60;152266.59;5002464;28;20272;-60
2023/08/25 10:25:14;;;;;;;3.80;2.20;;;;;;;24.97;66.25;152264.09;5018602;28;20238;-60
2023/08/25 10:27:42;;;;;;;7.00;2.50;;;;;;;24.91;68.90;152251.53;5014964;28;20234;-60
2023/08/25 10:30:11;;;;;;;6.20;3.00;;;;;;;24.79;68.17;152221.38;5017083;28;20221;-61
2023/08/25 10:32:51;;;;;;;3.93;2.83;;;;;;;25.17;66.90;152314.31;5011779;28;20242;-59
2023/08/25 10:35:38;;;;;;;4.30;2.63;;;;;;;25.12;66.51;152301.78;5015379;28;20576;-59
2023/08/25 10:38:05;;;;;;;5.73;2.50;;;;;;;24.83;67.39;152230.19;5019189;28;20224;-59
2023/08/25 10:40:40;;;;;;;2.70;2.50;;;;;;;24.65;68.76;152187.44;5014580;28;20670;-58
2023/08/25 10:43:07;;;;;;;2.87;2.30;;;;;;;24.65;68.90;152186.16;5018430;28;20220;-60
2023/08/25 10:45:36;;;;;;;7.23;2.33;;;;;;;24.89;68.50;152246.50;5013165;28;22176;-60
2023/08/25 10:48:04;;;;;;;4.43;2.70;;;;;;;24.89;69.89;152245.28;5016602;28;20228;-60
2023/08/25 10:50:30;;;;;;;5.77;3.63;;;;;;;24.76;67.08;152213.84;5011155;28;20225;-61
2023/08/25 10:52:57;;;;;;;4.30;2.67;;;;;;;24.86;66.88;152237.72;4997472;28;20236;-60
2023/08/25 10:55:26;;;;;;;4.37;2.57;;;;;;;24.58;68.19;152171.09;5014033;28;20739;-61
2023/08/25 10:57:53;;;;;;;3.73;2.73;;;;;;;24.54;69.25;152161.06;5016680;28;20289;-60
2023/08/25 11:00:29;;;;;;;3.10;2.17;;;;;;;24.67;69.76;152192.47;5014274;28;20230;-60
2023/08/25 11:02:57;;;;;;;4.23;2.63;;;;;;;24.23;70.89;152084.47;5018183;28;20239;-60
2023/08/25 11:05:43;;;;;;;5.43;2.70;;;;;;;24.05;72.17;152041.78;5013232;28;20743;-60
2023/08/25 11:08:29;;;;;;;3.60;2.80;;;;;;;23.87;73.22;151997.81;5017782;28;20719;-59
2023/08/25 11:11:11;;;;;;;4.33;2.60;;;;;;;23.81;74.13;151982.75;5014495;28;20257;-60
2023/08/25 11:13:38;;;;;;;6.00;2.63;;;;;;;23.92;75.15;152009.09;5017308;28;20243;-61
2023/08/25 11:16:08;;;;;;;3.80;2.60;;;;;;;23.83;74.49;151987.78;5020650;28;20307;-60
2023/08/25 11:18:36;;;;;;;3.80;2.80;;;;;;;23.97;75.20;152021.66;5014320;28;20242;-59
2023/08/25 11:21:04;;;;;;;6.10;3.10;;;;;;;24.06;75.31;152044.31;5018451;28;20229;-59
2023/08/25 11:23:40;;;;;;;4.20;2.63;;;;;;;24.51;73.97;152153.50;5014958;28;20250;-60
2023/08/25 11:26:08;;;;;;;4.33;3.03;;;;;;;24.62;74.89;152181.16;5016984;28;20224;-60
2023/08/25 11:28:36;;;;;;;5.43;2.70;;;;;;;24.31;73.69;152104.56;5013440;28;20224;-60